CheckWX is a tool to help pilots better visualize weather data.  It is not intended as a substitute for an official pre-flight weather briefing.

20:47:44 UTC

KFYV METAR
Drake Field Airport
Fayetteville, Arkansas, USA
Current

55 mins ago

KFYV 201953Z AUTO 28006KT 10SM CLR 21/04 A2999 RMK AO2 SLP155 T02060039
Observed
Apr-20 @ 19:53 UTC
Wind
  • 280° at 6 KTS
Visibility
10 SM
Flight Rules
VFR
Cloud Levels
  • Clear skies
Temperature
21°C / 70°F
Dewpoint
C / 39°F
Humidity
33%
Altimeter
29.99" Hg
Pressure
1015.62 hPa
Previous

2 hours ago

KFYV 201853Z VRB05KT 10SM CLR 19/03 A3002 RMK AO2 SLP163 T01890033
Observed
Apr-20 @ 18:53 UTC
Wind
  • Variable at 5 KTS
Visibility
10 SM
Flight Rules
VFR
Cloud Levels
  • Clear skies
Temperature
19°C / 66°F
Dewpoint
C / 37°F
Humidity
35%
Altimeter
30.02" Hg
Pressure
1016.62 hPa
Previous

3 hours ago

KFYV 201753Z 00000KT 10SM CLR 18/02 A3004 RMK AO2 SLP170 T01780017 10183 20006 58006
Observed
Apr-20 @ 17:53 UTC
Visibility
10 SM
Flight Rules
VFR
Cloud Levels
  • Clear skies
Temperature
18°C / 64°F
Dewpoint
C / 36°F
Humidity
34%
Altimeter
30.04" Hg
Pressure
1017.32 hPa